createdAt,value
2022-10-08T00:02:54.537Z,75.42
2022-10-08T00:08:02.064Z,75.53
2022-10-08T00:13:09.087Z,75.64
2022-10-08T00:18:16.563Z,75.78
2022-10-08T00:23:24.643Z,75.89
2022-10-08T00:28:32.518Z,76.00
2022-10-08T00:33:39.749Z,76.08
2022-10-08T00:38:46.836Z,76.17
2022-10-08T00:43:56.075Z,76.26
2022-10-08T00:49:08.774Z,76.36
2022-10-08T00:54:17.154Z,76.43
2022-10-08T00:59:24.581Z,76.55
2022-10-08T01:04:32.448Z,76.64
2022-10-08T01:09:43.943Z,76.72
2022-10-08T01:14:57.900Z,76.79
2022-10-08T01:20:26.413Z,76.82
2022-10-08T01:25:38.730Z,76.83
2022-10-08T01:30:51.787Z,76.86
2022-10-08T01:36:05.527Z,77.01
2022-10-08T01:41:15.842Z,77.02
2022-10-08T01:46:26.998Z,77.03
2022-10-08T01:51:38.683Z,76.99
2022-10-08T01:56:47.929Z,76.93
2022-10-08T02:02:02.957Z,77.01
2022-10-08T02:07:13.049Z,77.03
2022-10-08T02:12:22.499Z,77.12
2022-10-08T02:17:41.215Z,76.97
2022-10-08T02:22:56.042Z,76.98
2022-10-08T02:28:12.374Z,77.07
2022-10-08T02:33:24.460Z,77.09
2022-10-08T02:38:36.884Z,77.11
2022-10-08T02:43:48.614Z,77.08
2022-10-08T02:49:01.380Z,77.12
2022-10-08T02:54:10.760Z,77.10
2022-10-08T02:59:19.900Z,77.09
2022-10-08T03:04:29.403Z,77.12
2022-10-08T03:09:39.560Z,77.15
2022-10-08T03:14:52.722Z,77.14
2022-10-08T03:20:03.461Z,77.16
2022-10-08T03:25:12.001Z,77.19
2022-10-08T03:30:19.801Z,77.20
2022-10-08T03:35:27.342Z,77.22
2022-10-08T03:40:34.544Z,77.15
2022-10-08T03:45:50.404Z,77.15
2022-10-08T03:50:59.895Z,77.10
2022-10-08T03:56:09.643Z,77.05
2022-10-08T04:01:18.024Z,77.04
2022-10-08T04:06:25.743Z,77.08
2022-10-08T04:11:33.307Z,77.12
2022-10-08T04:16:41.054Z,77.15
2022-10-08T04:21:48.424Z,77.20
2022-10-08T04:26:55.478Z,77.26
2022-10-08T04:32:02.642Z,77.30
2022-10-08T04:37:10.253Z,77.32
2022-10-08T04:42:17.384Z,77.32
2022-10-08T04:47:25.094Z,77.33
2022-10-08T04:52:33.123Z,77.36
2022-10-08T04:57:40.297Z,77.37
2022-10-08T05:02:47.638Z,77.37
2022-10-08T05:07:57.073Z,77.38
2022-10-08T05:13:04.875Z,77.41
2022-10-08T05:18:12.104Z,77.44
2022-10-08T05:23:19.627Z,77.49
2022-10-08T05:28:26.987Z,77.49
2022-10-08T05:33:34.278Z,77.65
2022-10-08T05:38:44.065Z,77.59
2022-10-08T05:43:52.501Z,77.72
2022-10-08T05:49:01.826Z,77.85
2022-10-08T05:54:09.141Z,77.82
2022-10-08T05:59:20.315Z,77.84
2022-10-08T06:04:27.590Z,77.87
2022-10-08T06:09:35.132Z,78.00
2022-10-08T06:14:42.473Z,77.95
2022-10-08T06:19:49.656Z,77.86
2022-10-08T06:24:56.741Z,77.87
2022-10-08T06:30:03.950Z,77.83
2022-10-08T06:35:12.073Z,77.99
2022-10-08T06:40:19.539Z,77.96
2022-10-08T06:45:26.607Z,78.02
2022-10-08T06:50:33.919Z,78.07
2022-10-08T06:55:41.720Z,78.01
2022-10-08T07:00:48.767Z,78.00
2022-10-08T07:05:56.259Z,77.98
2022-10-08T07:11:09.602Z,77.96
2022-10-08T07:16:21.124Z,78.04
2022-10-08T07:21:29.907Z,78.11
2022-10-08T07:26:38.037Z,78.12
2022-10-08T07:31:45.418Z,78.07
2022-10-08T07:36:52.783Z,78.10
2022-10-08T07:41:59.867Z,78.03
2022-10-08T07:47:08.613Z,78.05
2022-10-08T07:52:16.280Z,77.99
2022-10-08T07:57:23.600Z,77.87
2022-10-08T08:02:30.606Z,77.93
2022-10-08T08:07:37.617Z,77.96
2022-10-08T08:12:44.839Z,78.03
2022-10-08T08:17:52.242Z,77.99
2022-10-08T08:22:59.333Z,77.90
2022-10-08T08:28:06.360Z,77.75
2022-10-08T08:33:14.259Z,77.67
2022-10-08T08:38:21.360Z,77.52
2022-10-08T08:43:29.066Z,77.13
2022-10-08T08:48:38.331Z,76.76
2022-10-08T08:53:45.948Z,76.49
2022-10-08T08:58:59.288Z,76.23
2022-10-08T09:04:14.784Z,76.00
2022-10-08T09:09:31.424Z,75.74
2022-10-08T09:14:44.212Z,75.50
2022-10-08T09:19:52.284Z,74.97
2022-10-08T09:25:02.481Z,74.75
2022-10-08T09:30:36.615Z,74.21
2022-10-08T09:35:47.884Z,74.17
2022-10-08T09:41:06.125Z,74.08
2022-10-08T09:46:31.223Z,74.12
2022-10-08T09:51:38.363Z,74.12
2022-10-08T09:56:53.134Z,74.02
2022-10-08T10:02:00.937Z,73.93
2022-10-08T10:07:08.571Z,73.85
2022-10-08T10:12:26.507Z,73.63
2022-10-08T10:17:44.272Z,73.48
2022-10-08T10:22:58.103Z,72.62
2022-10-08T10:28:09.042Z,72.20
2022-10-08T10:33:20.329Z,71.81
2022-10-08T10:38:29.829Z,71.13
2022-10-08T10:43:46.028Z,70.66
2022-10-08T10:48:53.526Z,70.28
2022-10-08T10:54:10.246Z,69.53
2022-10-08T10:59:33.838Z,69.26
2022-10-08T11:04:58.244Z,68.67
2022-10-08T11:10:22.361Z,68.22
2022-10-08T11:15:37.953Z,68.08
2022-10-08T11:21:01.310Z,67.46
2022-10-08T11:26:22.818Z,66.92
2022-10-08T11:31:42.247Z,66.36
2022-10-08T11:36:55.209Z,66.12
2022-10-08T11:42:10.842Z,66.04
2022-10-08T11:47:53.917Z,65.91
2022-10-08T11:53:15.596Z,65.90
2022-10-08T11:58:28.430Z,64.93
2022-10-08T12:03:38.704Z,64.61
2022-10-08T12:08:59.908Z,64.67
2022-10-08T12:14:43.354Z,64.69
2022-10-08T12:20:21.708Z,64.66
2022-10-08T12:26:09.314Z,64.22
2022-10-08T12:31:29.672Z,63.86
2022-10-08T12:36:55.511Z,63.27
2022-10-08T12:42:11.936Z,63.01
2022-10-08T12:47:30.157Z,62.78
2022-10-08T12:52:38.967Z,62.75
2022-10-08T12:57:49.078Z,62.83
2022-10-08T13:03:08.108Z,62.80
2022-10-08T13:08:34.210Z,62.64
2022-10-08T13:13:50.938Z,62.18
2022-10-08T13:18:59.087Z,61.77
2022-10-08T13:24:27.552Z,61.34
2022-10-08T13:29:37.991Z,61.25
2022-10-08T13:34:48.084Z,61.26
2022-10-08T13:39:57.563Z,61.03
2022-10-08T13:45:06.699Z,60.86
2022-10-08T13:50:14.188Z,61.04
2022-10-08T13:55:28.255Z,60.95
2022-10-08T14:00:37.525Z,60.82
2022-10-08T14:05:46.662Z,60.69
2022-10-08T14:10:58.415Z,60.67
2022-10-08T14:16:05.551Z,60.67
2022-10-08T14:21:15.201Z,60.66
2022-10-08T14:26:22.210Z,60.69
2022-10-08T14:31:29.862Z,60.71
2022-10-08T14:36:40.016Z,60.82
2022-10-08T14:41:47.375Z,60.97
2022-10-08T14:46:54.578Z,61.00
2022-10-08T14:52:01.783Z,61.12
2022-10-08T14:57:09.399Z,61.23
2022-10-08T15:02:16.696Z,61.26
2022-10-08T15:07:23.996Z,61.38
2022-10-08T15:12:31.321Z,61.55
2022-10-08T15:17:38.668Z,61.67
2022-10-08T15:22:46.161Z,61.80
2022-10-08T15:27:53.524Z,61.91
2022-10-08T15:33:06.037Z,61.99
2022-10-08T15:38:13.252Z,62.12
2022-10-08T15:43:20.376Z,62.23
2022-10-08T15:48:27.501Z,62.37
2022-10-08T15:53:38.716Z,62.50
2022-10-08T15:58:50.998Z,62.66
2022-10-08T16:04:00.403Z,62.84
2022-10-08T16:09:07.879Z,62.97
2022-10-08T16:14:18.237Z,63.21
2022-10-08T16:19:27.414Z,63.35
2022-10-08T16:24:34.995Z,63.53
2022-10-08T16:29:43.458Z,63.76
2022-10-08T16:34:53.554Z,63.44
2022-10-08T16:40:04.268Z,62.79
2022-10-08T16:45:12.896Z,62.14
2022-10-08T16:50:20.144Z,61.60
2022-10-08T16:55:27.768Z,61.14
2022-10-08T17:00:36.210Z,60.70
2022-10-08T17:05:46.161Z,60.55
2022-10-08T17:10:53.493Z,60.46
2022-10-08T17:16:07.945Z,60.29
2022-10-08T17:21:16.600Z,60.26
2022-10-08T17:26:25.293Z,60.46
2022-10-08T17:31:32.329Z,60.44
2022-10-08T17:36:41.372Z,60.57
2022-10-08T17:41:49.109Z,60.83
2022-10-08T17:46:56.774Z,61.02
2022-10-08T17:52:04.059Z,61.25
2022-10-08T17:57:11.205Z,61.57
2022-10-08T18:02:18.243Z,61.83
2022-10-08T18:07:25.253Z,62.04
2022-10-08T18:12:32.317Z,62.24
2022-10-08T18:17:40.341Z,62.43
2022-10-08T18:22:47.724Z,62.61
2022-10-08T18:27:56.651Z,62.81
2022-10-08T18:33:03.966Z,63.00
2022-10-08T18:38:12.203Z,63.15
2022-10-08T18:43:19.526Z,63.28
2022-10-08T18:48:27.159Z,63.40
2022-10-08T18:53:36.594Z,63.52
2022-10-08T18:58:44.217Z,63.67
2022-10-08T19:03:52.982Z,63.83
2022-10-08T19:09:01.859Z,63.97
2022-10-08T19:14:11.570Z,64.14
2022-10-08T19:19:20.305Z,64.30
2022-10-08T19:24:28.562Z,64.49
2022-10-08T19:29:36.357Z,64.68
2022-10-08T19:34:43.450Z,64.87
2022-10-08T19:39:51.376Z,65.02
2022-10-08T19:44:58.642Z,65.20
2022-10-08T19:50:06.187Z,65.40
2022-10-08T19:55:14.815Z,65.60
2022-10-08T20:00:22.365Z,65.80
2022-10-08T20:05:29.794Z,66.06
2022-10-08T20:10:40.663Z,66.31
2022-10-08T20:15:51.284Z,66.53
2022-10-08T20:21:06.125Z,66.81
2022-10-08T20:26:18.403Z,67.10
2022-10-08T20:31:27.765Z,67.47
2022-10-08T20:36:36.062Z,67.90
2022-10-08T20:41:43.656Z,68.35
2022-10-08T20:46:53.108Z,68.72
2022-10-08T20:52:00.532Z,69.07
2022-10-08T20:57:08.001Z,69.32
2022-10-08T21:02:19.477Z,69.47
2022-10-08T21:07:26.952Z,69.57
2022-10-08T21:12:34.620Z,69.67
2022-10-08T21:17:41.909Z,69.77
2022-10-08T21:22:49.898Z,69.94
2022-10-08T21:27:57.530Z,70.10
2022-10-08T21:33:04.868Z,70.26
2022-10-08T21:38:12.065Z,70.29
2022-10-08T21:43:19.612Z,70.35
2022-10-08T21:48:27.477Z,70.36
2022-10-08T21:53:36.271Z,70.35
2022-10-08T21:58:45.894Z,70.37
2022-10-08T22:03:55.930Z,70.45
2022-10-08T22:09:03.078Z,70.49
2022-10-08T22:14:10.210Z,70.62
2022-10-08T22:19:18.395Z,70.69
2022-10-08T22:24:26.325Z,70.87
2022-10-08T22:29:34.566Z,71.11
2022-10-08T22:34:41.620Z,71.27
2022-10-08T22:39:49.011Z,71.48
2022-10-08T22:44:56.344Z,71.61
2022-10-08T22:50:03.459Z,71.78
2022-10-08T22:55:11.923Z,71.94
2022-10-08T23:00:20.004Z,72.07
2022-10-08T23:05:27.451Z,72.21
2022-10-08T23:10:34.640Z,72.34
2022-10-08T23:15:41.913Z,72.45
2022-10-08T23:20:49.226Z,72.55
2022-10-08T23:26:01.685Z,72.64
2022-10-08T23:31:10.679Z,72.82
2022-10-08T23:36:19.808Z,73.07
2022-10-08T23:41:27.760Z,73.26
2022-10-08T23:46:35.444Z,73.44
2022-10-08T23:51:42.709Z,73.67
2022-10-08T23:56:50.172Z,73.90
